createdAt,value
2018-07-27T00:00:33.927Z,143.2
2018-07-27T00:01:35.295Z,143.2
2018-07-27T00:02:36.847Z,143.7
2018-07-27T00:03:38.223Z,142.2
2018-07-27T00:04:39.771Z,142.2
2018-07-27T00:05:41.140Z,144.2
2018-07-27T00:06:42.675Z,144.2
2018-07-27T00:07:43.902Z,143.7
2018-07-27T00:08:45.500Z,144.2
2018-07-27T00:09:46.879Z,144.2
2018-07-27T00:10:48.261Z,143.7
2018-07-27T00:11:49.455Z,143.7
2018-07-27T00:12:50.836Z,144.2
2018-07-27T00:13:52.218Z,144.2
2018-07-27T00:14:53.615Z,143.7
2018-07-27T00:15:55.142Z,144.7
2018-07-27T00:16:56.693Z,144.2
2018-07-27T00:17:58.258Z,144.2
2018-07-27T00:18:59.622Z,143.7
2018-07-27T00:20:01.156Z,143.7
2018-07-27T00:21:02.556Z,143.2
2018-07-27T00:22:04.102Z,143.7
2018-07-27T00:23:05.493Z,143.7
2018-07-27T00:24:07.049Z,143.7
2018-07-27T00:25:08.604Z,143.7
2018-07-27T00:26:09.984Z,143.2
2018-07-27T00:27:11.364Z,143.2
2018-07-27T00:28:12.598Z,143.2
2018-07-27T00:29:13.662Z,143.7
2018-07-27T00:30:14.882Z,143.7
2018-07-27T00:31:16.296Z,144.2
2018-07-27T00:32:17.522Z,144.2
2018-07-27T00:33:18.902Z,143.7
2018-07-27T00:34:20.457Z,144.2
2018-07-27T00:35:21.654Z,144.7
2018-07-27T00:36:22.877Z,144.2
2018-07-27T00:37:24.261Z,144.2
2018-07-27T00:38:25.808Z,144.7
2018-07-27T00:39:27.186Z,145.2
2018-07-27T00:40:28.720Z,144.2
2018-07-27T00:41:30.088Z,144.7
2018-07-27T00:42:31.294Z,144.2
2018-07-27T00:43:32.834Z,144.7
2018-07-27T00:44:33.725Z,143.7
2018-07-27T00:45:35.275Z,144.7
2018-07-27T00:46:36.466Z,143.7
2018-07-27T00:47:37.681Z,143.7
2018-07-27T00:48:39.246Z,144.2
2018-07-27T00:49:40.624Z,144.7
2018-07-27T00:50:41.834Z,144.2
2018-07-27T00:51:43.225Z,144.7
2018-07-27T00:52:44.785Z,145.2
2018-07-27T00:53:46.146Z,144.2
2018-07-27T00:54:47.534Z,144.7
2018-07-27T00:55:48.756Z,145.2
2018-07-27T00:56:50.290Z,145.2
2018-07-27T00:57:51.669Z,145.7
2018-07-27T00:58:53.216Z,145.2
2018-07-27T00:59:54.768Z,145.2
2018-07-27T01:00:56.336Z,145.7
2018-07-27T01:01:57.879Z,145.7
2018-07-27T01:02:59.426Z,145.2
2018-07-27T01:04:00.666Z,145.7
2018-07-27T01:05:01.726Z,145.7
2018-07-27T01:06:03.143Z,145.7
2018-07-27T01:07:04.364Z,146.6
2018-07-27T01:08:05.899Z,146.1
2018-07-27T01:09:07.443Z,145.2
2018-07-27T01:10:08.835Z,146.6
2018-07-27T01:11:10.375Z,146.6
2018-07-27T01:12:11.263Z,145.2
2018-07-27T01:13:12.635Z,146.1
2018-07-27T01:14:14.195Z,146.6
2018-07-27T01:15:15.733Z,146.1
2018-07-27T01:16:17.293Z,144.7
2018-07-27T01:17:18.847Z,145.7
2018-07-27T01:18:20.226Z,145.2
2018-07-27T01:19:21.794Z,145.2
2018-07-27T01:20:22.684Z,144.7
2018-07-27T01:21:24.062Z,144.7
2018-07-27T01:22:25.612Z,145.2
2018-07-27T01:23:26.987Z,145.2
2018-07-27T01:24:28.343Z,144.7
2018-07-27T01:25:29.900Z,145.2
2018-07-27T01:26:31.445Z,144.7
2018-07-27T01:27:32.990Z,145.2
2018-07-27T01:28:34.373Z,144.7
2018-07-27T01:29:35.751Z,145.7
2018-07-27T01:30:37.125Z,145.2
2018-07-27T01:31:38.675Z,145.2
2018-07-27T01:32:40.231Z,144.7
2018-07-27T01:33:41.755Z,145.2
2018-07-27T01:34:43.330Z,145.2
2018-07-27T01:35:44.544Z,145.2
2018-07-27T01:36:46.082Z,146.1
2018-07-27T01:37:47.479Z,146.1
2018-07-27T01:38:49.015Z,146.1
2018-07-27T01:39:50.584Z,146.1
2018-07-27T01:40:51.806Z,146.1
2018-07-27T01:41:53.348Z,145.7
2018-07-27T01:42:54.881Z,145.2
2018-07-27T01:43:56.261Z,145.7
2018-07-27T01:44:57.654Z,145.2
2018-07-27T01:45:59.024Z,145.7
2018-07-27T01:47:00.262Z,145.7
2018-07-27T01:48:01.478Z,145.7
2018-07-27T01:49:03.035Z,145.2
2018-07-27T01:50:04.244Z,145.7
2018-07-27T01:51:06.038Z,145.7
2018-07-27T01:52:07.837Z,145.2
2018-07-27T01:53:09.433Z,145.7
2018-07-27T01:54:10.989Z,145.2
2018-07-27T01:55:12.375Z,145.2
2018-07-27T01:56:13.765Z,145.2
2018-07-27T01:57:14.982Z,145.2
2018-07-27T01:58:16.345Z,145.2
2018-07-27T01:59:17.763Z,145.2
2018-07-27T02:00:19.322Z,145.2
2018-07-27T02:01:20.874Z,144.7
2018-07-27T02:02:22.254Z,144.7
2018-07-27T02:03:23.637Z,144.7
2018-07-27T02:04:25.021Z,144.7
2018-07-27T02:05:26.405Z,144.7
2018-07-27T02:06:27.974Z,145.2
2018-07-27T02:07:29.520Z,145.2
2018-07-27T02:08:30.897Z,145.7
2018-07-27T02:09:32.286Z,146.1
2018-07-27T02:10:33.495Z,146.6
2018-07-27T02:11:34.858Z,147.6
2018-07-27T02:12:36.236Z,147.6
2018-07-27T02:13:37.787Z,147.6
2018-07-27T02:14:39.189Z,147.6
2018-07-27T02:15:40.407Z,146.6
2018-07-27T02:16:41.789Z,146.6
2018-07-27T02:17:42.995Z,146.1
2018-07-27T02:18:44.551Z,146.1
2018-07-27T02:19:46.099Z,146.1
2018-07-27T02:20:47.318Z,146.1
2018-07-27T02:21:48.861Z,145.7
2018-07-27T02:22:50.242Z,146.1
2018-07-27T02:23:51.628Z,146.1
2018-07-27T02:24:53.041Z,146.6
2018-07-27T02:25:54.590Z,146.1
2018-07-27T02:26:55.963Z,146.1
2018-07-27T02:27:57.490Z,146.6
2018-07-27T02:28:58.874Z,146.6
2018-07-27T02:30:00.425Z,146.6
2018-07-27T02:31:01.978Z,145.2
2018-07-27T02:32:03.384Z,145.2
2018-07-27T02:33:04.947Z,146.6
2018-07-27T02:34:06.517Z,147.1
2018-07-27T02:35:07.910Z,146.6
2018-07-27T02:36:09.309Z,146.6
2018-07-27T02:37:10.534Z,146.1
2018-07-27T02:38:11.899Z,146.6
2018-07-27T02:39:13.460Z,146.1
2018-07-27T02:40:14.694Z,146.6
2018-07-27T02:41:16.109Z,147.1
2018-07-27T02:42:17.508Z,146.6
2018-07-27T02:43:18.914Z,146.6
2018-07-27T02:44:20.145Z,146.6
2018-07-27T02:45:21.707Z,146.1
2018-07-27T02:46:23.244Z,146.1
2018-07-27T02:47:24.629Z,145.7
2018-07-27T02:48:26.184Z,146.1
2018-07-27T02:49:27.575Z,145.7
2018-07-27T02:50:29.204Z,145.7
2018-07-27T02:51:31.048Z,145.2
2018-07-27T02:52:32.834Z,144.7
2018-07-27T02:53:34.214Z,145.2
2018-07-27T02:54:35.614Z,145.2
2018-07-27T02:55:37.156Z,145.2
2018-07-27T02:56:38.381Z,144.7
2018-07-27T02:57:39.937Z,145.2
2018-07-27T02:58:41.165Z,144.7
2018-07-27T02:59:42.706Z,145.2
2018-07-27T03:00:44.076Z,144.2
2018-07-27T03:01:45.498Z,144.2
2018-07-27T03:02:46.871Z,144.2
2018-07-27T03:03:48.425Z,144.2
2018-07-27T03:04:49.484Z,144.2
2018-07-27T03:05:51.025Z,144.7
2018-07-27T03:06:52.405Z,145.2
2018-07-27T03:07:53.954Z,144.7
2018-07-27T03:08:55.331Z,144.7
2018-07-27T03:09:56.546Z,144.2
2018-07-27T03:10:58.113Z,144.7
2018-07-27T03:11:59.667Z,144.7
2018-07-27T03:13:01.225Z,144.2
2018-07-27T03:14:02.468Z,144.7
2018-07-27T03:15:04.022Z,144.7
2018-07-27T03:16:05.571Z,144.7
2018-07-27T03:17:06.949Z,144.2
2018-07-27T03:18:08.375Z,144.7
2018-07-27T03:19:09.775Z,144.2
2018-07-27T03:20:11.175Z,144.7
2018-07-27T03:21:12.570Z,144.7
2018-07-27T03:22:13.944Z,144.2
2018-07-27T03:23:15.185Z,144.7
2018-07-27T03:24:16.571Z,145.2
2018-07-27T03:25:18.119Z,145.2
2018-07-27T03:26:19.664Z,145.7
2018-07-27T03:27:21.059Z,145.7
2018-07-27T03:28:22.455Z,145.7
2018-07-27T03:29:24.009Z,145.7
2018-07-27T03:30:25.372Z,145.2
2018-07-27T03:31:26.765Z,145.2
2018-07-27T03:32:28.123Z,145.7
2018-07-27T03:33:29.317Z,145.7
2018-07-27T03:34:30.524Z,145.7
2018-07-27T03:35:32.066Z,145.7
2018-07-27T03:36:33.461Z,146.1
2018-07-27T03:37:34.672Z,146.1
2018-07-27T03:38:36.219Z,145.7
2018-07-27T03:39:37.604Z,146.1
2018-07-27T03:40:38.647Z,145.2
2018-07-27T03:41:40.027Z,146.1
2018-07-27T03:42:41.575Z,145.7
2018-07-27T03:43:43.208Z,144.7
2018-07-27T03:44:45.081Z,145.2
2018-07-27T03:45:46.644Z,145.7
2018-07-27T03:46:47.843Z,145.7
2018-07-27T03:47:49.394Z,145.7
2018-07-27T03:48:50.771Z,145.7
2018-07-27T03:49:52.325Z,146.1
2018-07-27T03:50:53.874Z,146.6
2018-07-27T03:51:55.419Z,146.6
2018-07-27T03:52:56.963Z,146.6
2018-07-27T03:53:58.505Z,145.7
2018-07-27T03:54:59.895Z,145.2
2018-07-27T03:56:01.274Z,145.7
2018-07-27T03:57:02.660Z,146.1
2018-07-27T03:58:04.032Z,145.7
2018-07-27T03:59:05.245Z,144.7
2018-07-27T04:00:06.784Z,145.2
2018-07-27T04:01:08.328Z,145.2
2018-07-27T04:02:09.949Z,145.2
2018-07-27T04:03:11.766Z,144.7
2018-07-27T04:04:13.152Z,144.7
2018-07-27T04:05:14.528Z,145.2
2018-07-27T04:06:15.926Z,144.2
2018-07-27T04:07:17.574Z,144.7
2018-07-27T04:08:19.312Z,144.7
2018-07-27T04:09:20.844Z,144.2
2018-07-27T04:10:22.397Z,144.2
2018-07-27T04:11:23.954Z,143.2
2018-07-27T04:12:25.553Z,143.7
2018-07-27T04:13:27.121Z,143.7
2018-07-27T04:14:28.354Z,143.7
2018-07-27T04:15:29.729Z,143.7
2018-07-27T04:16:31.264Z,144.2
2018-07-27T04:17:32.663Z,143.7
2018-07-27T04:18:34.039Z,143.7
2018-07-27T04:19:35.568Z,144.2
2018-07-27T04:20:36.956Z,143.7
2018-07-27T04:21:38.179Z,144.2
2018-07-27T04:22:39.406Z,144.2
2018-07-27T04:23:40.819Z,144.2
2018-07-27T04:24:42.379Z,143.7
2018-07-27T04:25:43.754Z,142.7
2018-07-27T04:26:45.350Z,143.7
2018-07-27T04:27:46.733Z,143.7
2018-07-27T04:28:48.269Z,144.2
2018-07-27T04:29:49.843Z,144.2
2018-07-27T04:30:51.223Z,143.7
2018-07-27T04:31:52.620Z,143.7
2018-07-27T04:32:54.193Z,143.7
2018-07-27T04:33:55.583Z,144.2
2018-07-27T04:34:57.156Z,144.2
2018-07-27T04:35:58.370Z,143.7
2018-07-27T04:36:59.941Z,143.7
2018-07-27T04:38:01.485Z,143.7
2018-07-27T04:39:03.040Z,144.2
2018-07-27T04:40:04.594Z,144.2
2018-07-27T04:41:06.149Z,143.7
2018-07-27T04:42:07.691Z,143.2
2018-07-27T04:43:09.068Z,143.7
2018-07-27T04:44:10.629Z,143.7
2018-07-27T04:45:12.017Z,143.7
2018-07-27T04:46:13.239Z,143.7
2018-07-27T04:47:14.621Z,143.7
2018-07-27T04:48:16.160Z,143.7
2018-07-27T04:49:17.663Z,143.2
2018-07-27T04:50:19.356Z,143.7
2018-07-27T04:51:20.917Z,143.7
2018-07-27T04:52:22.306Z,143.7
2018-07-27T04:53:23.854Z,143.7
2018-07-27T04:54:25.104Z,143.2
2018-07-27T04:55:26.476Z,143.2
2018-07-27T04:56:28.142Z,143.7
2018-07-27T04:57:30.083Z,143.7
2018-07-27T04:58:31.674Z,143.7
2018-07-27T04:59:33.060Z,143.7
2018-07-27T05:00:34.436Z,143.7
2018-07-27T05:01:35.813Z,143.7
2018-07-27T05:02:37.228Z,142.7
2018-07-27T05:03:38.784Z,143.2
2018-07-27T05:04:40.512Z,143.7
2018-07-27T05:05:42.331Z,143.2
2018-07-27T05:06:43.867Z,143.7
2018-07-27T05:07:45.266Z,143.7
2018-07-27T05:08:46.818Z,143.7
2018-07-27T05:09:48.196Z,143.7
2018-07-27T05:10:49.414Z,143.7
2018-07-27T05:11:51.109Z,143.2
2018-07-27T05:12:52.824Z,143.2
2018-07-27T05:13:54.036Z,143.7
2018-07-27T05:14:55.594Z,143.2
2018-07-27T05:15:56.956Z,143.2
2018-07-27T05:16:58.505Z,143.7
2018-07-27T05:18:00.057Z,143.7
2018-07-27T05:19:01.605Z,143.2
2018-07-27T05:20:03.154Z,143.7
2018-07-27T05:21:04.547Z,143.2
2018-07-27T05:22:05.768Z,143.2
2018-07-27T05:23:07.312Z,143.7
2018-07-27T05:24:08.841Z,143.2
2018-07-27T05:25:10.404Z,142.7
2018-07-27T05:26:11.825Z,143.7
2018-07-27T05:27:13.361Z,143.2
2018-07-27T05:28:14.955Z,143.2
2018-07-27T05:29:16.333Z,143.2
2018-07-27T05:30:17.565Z,143.2
2018-07-27T05:31:19.143Z,142.7
2018-07-27T05:32:20.523Z,143.2
2018-07-27T05:33:21.897Z,143.7
2018-07-27T05:34:23.554Z,144.2
2018-07-27T05:35:25.234Z,143.7
2018-07-27T05:36:26.784Z,143.2
2018-07-27T05:37:28.010Z,143.2
2018-07-27T05:38:29.383Z,143.2
2018-07-27T05:39:30.766Z,143.7
2018-07-27T05:40:32.314Z,143.2
2018-07-27T05:41:33.861Z,143.7
2018-07-27T05:42:35.407Z,143.7
2018-07-27T05:43:36.617Z,143.2
2018-07-27T05:44:38.165Z,143.7
2018-07-27T05:45:39.374Z,143.7
2018-07-27T05:46:40.927Z,143.2
2018-07-27T05:47:42.475Z,143.7
2018-07-27T05:48:43.996Z,143.7
2018-07-27T05:49:45.734Z,143.2
2018-07-27T05:50:46.958Z,143.2
2018-07-27T05:51:48.332Z,143.2
2018-07-27T05:52:49.829Z,143.2
2018-07-27T05:53:51.915Z,143.2
2018-07-27T05:54:53.465Z,143.7
2018-07-27T05:55:55.013Z,143.2
2018-07-27T05:56:56.592Z,143.7
2018-07-27T05:57:58.124Z,143.2
2018-07-27T05:58:59.712Z,143.2
2018-07-27T06:00:01.103Z,143.2
2018-07-27T06:01:02.589Z,143.2
2018-07-27T06:02:04.265Z,143.2
2018-07-27T06:03:05.655Z,143.2
2018-07-27T06:04:07.044Z,143.7
2018-07-27T06:05:08.596Z,143.2
2018-07-27T06:06:09.990Z,143.2
2018-07-27T06:07:11.221Z,143.2
2018-07-27T06:08:12.784Z,143.7
2018-07-27T06:09:14.163Z,143.2
2018-07-27T06:10:15.555Z,143.2
2018-07-27T06:11:16.911Z,143.2
2018-07-27T06:12:18.639Z,143.2
2018-07-27T06:13:20.180Z,143.2
2018-07-27T06:14:21.560Z,143.2
2018-07-27T06:15:22.992Z,143.2
2018-07-27T06:16:24.403Z,143.2
2018-07-27T06:17:25.644Z,143.7
2018-07-27T06:18:27.209Z,143.2
2018-07-27T06:19:28.750Z,143.2
2018-07-27T06:20:30.133Z,143.7
2018-07-27T06:21:31.675Z,143.7
2018-07-27T06:22:33.221Z,143.2
2018-07-27T06:23:34.765Z,143.2
2018-07-27T06:24:36.154Z,143.7
2018-07-27T06:25:37.770Z,143.7
2018-07-27T06:26:39.598Z,143.7
2018-07-27T06:27:41.174Z,143.2
2018-07-27T06:28:42.561Z,142.7
2018-07-27T06:29:43.936Z,143.2
2018-07-27T06:30:45.460Z,143.7
2018-07-27T06:31:47.012Z,143.2
2018-07-27T06:32:48.576Z,143.2
2018-07-27T06:33:50.132Z,143.2
2018-07-27T06:34:51.356Z,142.7
2018-07-27T06:35:52.915Z,143.7
2018-07-27T06:36:54.476Z,143.2
2018-07-27T06:37:55.864Z,143.2
2018-07-27T06:38:57.246Z,143.2
2018-07-27T06:39:58.896Z,143.2
2018-07-27T06:41:00.455Z,143.2
2018-07-27T06:42:01.995Z,143.2
2018-07-27T06:43:03.380Z,143.2
2018-07-27T06:44:04.762Z,143.2
2018-07-27T06:45:06.430Z,143.2
2018-07-27T06:46:08.232Z,143.2
2018-07-27T06:47:09.619Z,142.7
2018-07-27T06:48:11.173Z,143.2
2018-07-27T06:49:12.398Z,143.2
2018-07-27T06:50:13.802Z,143.2
2018-07-27T06:51:15.366Z,143.2
2018-07-27T06:52:16.748Z,143.2
2018-07-27T06:53:18.210Z,143.2
2018-07-27T06:54:19.587Z,142.7
2018-07-27T06:55:21.153Z,143.2
2018-07-27T06:56:22.703Z,142.7
2018-07-27T06:57:24.257Z,143.7
2018-07-27T06:58:25.823Z,143.2
2018-07-27T06:59:27.394Z,143.2
2018-07-27T07:00:28.594Z,143.2
2018-07-27T07:01:30.140Z,142.7
2018-07-27T07:02:31.512Z,143.2
2018-07-27T07:03:32.756Z,142.7
2018-07-27T07:04:34.179Z,143.2
2018-07-27T07:05:35.557Z,143.2
2018-07-27T07:06:36.977Z,143.2
2018-07-27T07:07:38.373Z,143.2
2018-07-27T07:08:39.766Z,142.7
2018-07-27T07:09:41.137Z,142.7
2018-07-27T07:10:42.514Z,142.7
2018-07-27T07:11:43.907Z,142.7
2018-07-27T07:12:45.332Z,143.2
2018-07-27T07:13:46.903Z,142.7
2018-07-27T07:14:48.295Z,142.7
2018-07-27T07:15:49.678Z,143.2
2018-07-27T07:16:51.236Z,143.2
2018-07-27T07:17:52.625Z,143.2
2018-07-27T07:18:54.012Z,143.2
2018-07-27T07:19:55.382Z,142.7
2018-07-27T07:20:56.600Z,143.2
2018-07-27T07:21:58.147Z,142.7
2018-07-27T07:22:59.361Z,143.2
2018-07-27T07:24:00.758Z,143.2
2018-07-27T07:25:02.317Z,143.2
2018-07-27T07:26:04.982Z,142.7
2018-07-27T07:27:09.367Z,143.2
2018-07-27T07:28:10.752Z,142.7
2018-07-27T07:29:11.816Z,143.2
2018-07-27T07:30:13.196Z,143.2
2018-07-27T07:31:14.761Z,143.2
2018-07-27T07:32:16.308Z,143.2
2018-07-27T07:33:18.077Z,143.2
2018-07-27T07:34:19.714Z,143.2
2018-07-27T07:35:21.096Z,143.2
2018-07-27T07:36:22.305Z,143.2
2018-07-27T07:37:23.850Z,142.7
2018-07-27T07:38:25.387Z,142.7
2018-07-27T07:39:26.774Z,146.6
2018-07-27T07:40:27.986Z,142.7
2018-07-27T07:41:29.385Z,142.7
2018-07-27T07:42:30.763Z,142.7
2018-07-27T07:43:32.314Z,142.7
2018-07-27T07:44:33.867Z,143.2
2018-07-27T07:45:35.250Z,142.7
2018-07-27T07:46:36.797Z,142.7
2018-07-27T07:47:38.196Z,143.2
2018-07-27T07:48:39.742Z,143.2
2018-07-27T07:49:40.946Z,143.7
2018-07-27T07:50:42.350Z,143.2
2018-07-27T07:51:43.740Z,142.7
2018-07-27T07:52:45.304Z,142.7
2018-07-27T07:53:46.858Z,142.7
2018-07-27T07:54:48.413Z,142.7
2018-07-27T07:55:49.967Z,143.2
2018-07-27T07:56:51.395Z,142.7
2018-07-27T07:57:52.767Z,142.7
2018-07-27T07:58:54.169Z,143.2
2018-07-27T07:59:55.389Z,142.7
2018-07-27T08:00:56.762Z,142.7
2018-07-27T08:01:58.136Z,142.7
2018-07-27T08:02:59.684Z,143.2
2018-07-27T08:04:00.895Z,142.7
2018-07-27T08:05:02.286Z,142.7
2018-07-27T08:06:03.851Z,142.7
2018-07-27T08:07:05.243Z,143.2
2018-07-27T08:08:06.804Z,143.2
2018-07-27T08:09:08.197Z,142.7
2018-07-27T08:10:09.757Z,143.2
2018-07-27T08:11:11.431Z,143.2
2018-07-27T08:12:13.291Z,143.2
2018-07-27T08:13:14.837Z,142.7
2018-07-27T08:14:16.386Z,142.7
2018-07-27T08:15:17.760Z,142.2
2018-07-27T08:16:19.304Z,142.7
2018-07-27T08:17:21.049Z,142.7
2018-07-27T08:18:22.569Z,142.7
2018-07-27T08:19:24.120Z,142.7
2018-07-27T08:20:25.731Z,143.2
2018-07-27T08:21:27.336Z,143.2
2018-07-27T08:22:28.577Z,142.7
2018-07-27T08:23:30.137Z,142.7
2018-07-27T08:24:31.695Z,143.2
2018-07-27T08:25:32.917Z,142.7
2018-07-27T08:26:33.974Z,142.2
2018-07-27T08:27:35.362Z,142.7
2018-07-27T08:28:36.914Z,142.7
2018-07-27T08:29:38.467Z,142.7
2018-07-27T08:30:39.904Z,142.7
2018-07-27T08:31:41.453Z,142.2
2018-07-27T08:32:42.671Z,142.7
2018-07-27T08:33:43.910Z,142.7
2018-07-27T08:34:45.307Z,142.7
2018-07-27T08:35:46.890Z,143.2
2018-07-27T08:36:48.265Z,143.2
2018-07-27T08:37:49.672Z,143.2
2018-07-27T08:38:51.167Z,143.2
2018-07-27T08:39:52.600Z,142.7
2018-07-27T08:40:53.816Z,142.7
2018-07-27T08:41:55.377Z,142.7
2018-07-27T08:42:56.778Z,143.2
2018-07-27T08:43:58.156Z,142.7
2018-07-27T08:44:59.540Z,142.7
2018-07-27T08:46:01.120Z,143.2
2018-07-27T08:47:02.677Z,142.7
2018-07-27T08:48:04.237Z,142.2
2018-07-27T08:49:05.645Z,143.2
2018-07-27T08:50:07.198Z,142.7
2018-07-27T08:51:08.604Z,143.2
2018-07-27T08:52:10.132Z,143.2
2018-07-27T08:53:11.698Z,143.2
2018-07-27T08:54:13.087Z,142.2
2018-07-27T08:55:14.470Z,143.2
2018-07-27T08:56:16.105Z,142.7
2018-07-27T08:57:17.272Z,143.2
2018-07-27T08:58:18.492Z,142.7
2018-07-27T08:59:20.040Z,143.2
2018-07-27T09:00:21.436Z,142.7
2018-07-27T09:01:22.987Z,142.2
2018-07-27T09:02:24.371Z,142.7
2018-07-27T09:03:25.600Z,142.7
2018-07-27T09:04:27.163Z,143.2
2018-07-27T09:05:28.538Z,143.2
2018-07-27T09:06:29.770Z,141.7
2018-07-27T09:07:31.167Z,141.3
2018-07-27T09:08:32.562Z,140.8
2018-07-27T09:09:33.782Z,140.8
2018-07-27T09:10:35.150Z,141.7
2018-07-27T09:11:36.525Z,142.7
2018-07-27T09:12:37.909Z,143.2
2018-07-27T09:13:39.295Z,143.2
2018-07-27T09:14:40.677Z,142.2
2018-07-27T09:15:42.219Z,143.2
2018-07-27T09:16:43.760Z,142.7
2018-07-27T09:17:45.363Z,142.7
2018-07-27T09:18:46.937Z,142.7
2018-07-27T09:19:48.545Z,142.7
2018-07-27T09:20:50.096Z,142.7
2018-07-27T09:21:51.488Z,143.2
2018-07-27T09:22:53.038Z,142.7
2018-07-27T09:23:54.413Z,142.2
2018-07-27T09:24:56.705Z,142.2
2018-07-27T09:26:00.134Z,143.2
2018-07-27T09:27:01.736Z,143.2
2018-07-27T09:28:03.132Z,142.7
2018-07-27T09:29:04.687Z,142.7
2018-07-27T09:30:06.225Z,142.7
2018-07-27T09:31:07.761Z,142.7
2018-07-27T09:32:09.313Z,142.7
2018-07-27T09:33:10.366Z,141.3
2018-07-27T09:34:11.889Z,142.7
2018-07-27T09:35:13.700Z,142.7
2018-07-27T09:36:15.667Z,142.7
2018-07-27T09:37:17.216Z,142.7
2018-07-27T09:38:18.759Z,142.2
2018-07-27T09:39:20.315Z,142.7
2018-07-27T09:40:21.867Z,142.7
2018-07-27T09:41:23.494Z,142.7
2018-07-27T09:42:24.888Z,142.2
2018-07-27T09:43:26.100Z,142.7
2018-07-27T09:44:27.346Z,142.7
2018-07-27T09:45:28.928Z,143.2
2018-07-27T09:46:30.569Z,142.7
2018-07-27T09:47:32.385Z,142.2
2018-07-27T09:48:33.767Z,142.7
2018-07-27T09:49:34.983Z,141.3
2018-07-27T09:50:36.382Z,142.2
2018-07-27T09:51:38.045Z,142.2
2018-07-27T09:52:39.534Z,142.7
2018-07-27T09:53:40.915Z,142.7
2018-07-27T09:54:42.639Z,142.2
2018-07-27T09:55:44.013Z,142.2
2018-07-27T09:56:45.551Z,142.7
2018-07-27T09:57:46.969Z,142.2
2018-07-27T09:58:48.561Z,142.2
2018-07-27T09:59:49.936Z,142.7
2018-07-27T10:00:51.487Z,142.7
2018-07-27T10:01:53.049Z,142.2
2018-07-27T10:02:54.604Z,142.2
2018-07-27T10:03:56.166Z,142.2
2018-07-27T10:04:57.740Z,142.7
2018-07-27T10:05:59.136Z,142.2
2018-07-27T10:07:00.688Z,142.2
2018-07-27T10:08:02.243Z,142.7
2018-07-27T10:09:03.443Z,142.2
2018-07-27T10:10:04.847Z,142.2
2018-07-27T10:11:06.236Z,142.7
2018-07-27T10:12:07.831Z,142.7
2018-07-27T10:13:09.404Z,142.7
2018-07-27T10:14:10.977Z,142.2
2018-07-27T10:15:12.530Z,142.7
2018-07-27T10:16:14.071Z,142.2
2018-07-27T10:17:15.637Z,142.7
2018-07-27T10:18:17.174Z,142.2
2018-07-27T10:19:18.738Z,142.2
2018-07-27T10:20:20.133Z,142.2
2018-07-27T10:21:21.702Z,142.7
2018-07-27T10:22:23.095Z,141.7
2018-07-27T10:23:24.637Z,142.7
2018-07-27T10:24:26.211Z,142.7
2018-07-27T10:25:27.776Z,142.2
2018-07-27T10:26:29.165Z,142.2
2018-07-27T10:27:30.548Z,142.2
2018-07-27T10:28:31.922Z,142.7
2018-07-27T10:29:33.309Z,142.2
2018-07-27T10:30:34.861Z,141.3
2018-07-27T10:31:36.417Z,142.2
2018-07-27T10:32:37.807Z,141.7
2018-07-27T10:33:39.215Z,142.2
2018-07-27T10:34:40.777Z,141.3
2018-07-27T10:35:42.346Z,141.7
2018-07-27T10:36:43.902Z,141.7
2018-07-27T10:37:45.453Z,141.7
2018-07-27T10:38:46.947Z,141.7
2018-07-27T10:39:48.570Z,141.3
2018-07-27T10:40:49.951Z,141.7
2018-07-27T10:41:51.165Z,141.7
2018-07-27T10:42:52.713Z,141.7
2018-07-27T10:43:54.097Z,141.3
2018-07-27T10:44:55.336Z,142.2
2018-07-27T10:45:56.739Z,142.2
2018-07-27T10:46:58.129Z,142.7
2018-07-27T10:47:59.526Z,142.7
2018-07-27T10:49:00.924Z,142.2
2018-07-27T10:50:02.148Z,142.7
2018-07-27T10:51:03.552Z,142.2
2018-07-27T10:52:04.937Z,142.2
2018-07-27T10:53:06.321Z,142.2
2018-07-27T10:54:07.902Z,142.7
2018-07-27T10:55:09.305Z,142.2
2018-07-27T10:56:10.702Z,142.7
2018-07-27T10:57:12.091Z,142.2
2018-07-27T10:58:13.505Z,141.7
2018-07-27T10:59:14.901Z,141.7
2018-07-27T11:00:16.438Z,142.2
2018-07-27T11:01:17.829Z,142.2
2018-07-27T11:02:19.145Z,142.7
2018-07-27T11:03:20.910Z,142.2
2018-07-27T11:04:22.467Z,142.7
2018-07-27T11:05:24.021Z,142.2
2018-07-27T11:06:25.576Z,142.2
2018-07-27T11:07:26.965Z,142.7
2018-07-27T11:08:28.515Z,142.2
2018-07-27T11:09:30.105Z,142.7
2018-07-27T11:10:31.504Z,142.2
2018-07-27T11:11:32.887Z,142.2
2018-07-27T11:12:34.280Z,142.7
2018-07-27T11:13:35.853Z,142.7
2018-07-27T11:14:37.248Z,142.7
2018-07-27T11:15:38.636Z,142.7
2018-07-27T11:16:40.216Z,142.2
2018-07-27T11:17:41.886Z,142.7
2018-07-27T11:18:43.790Z,141.3
2018-07-27T11:19:45.013Z,141.7
2018-07-27T11:20:46.392Z,141.3
2018-07-27T11:21:47.935Z,141.7
2018-07-27T11:22:49.315Z,141.3
2018-07-27T11:23:50.866Z,141.3
2018-07-27T11:24:52.415Z,141.3
2018-07-27T11:25:53.960Z,142.2
2018-07-27T11:26:55.012Z,142.2
2018-07-27T11:27:56.597Z,142.7
2018-07-27T11:28:58.165Z,142.2
2018-07-27T11:29:59.582Z,142.7
2018-07-27T11:31:01.256Z,142.7
2018-07-27T11:32:03.188Z,142.2
2018-07-27T11:33:04.580Z,142.7
2018-07-27T11:34:06.156Z,142.2
2018-07-27T11:35:07.553Z,142.7
2018-07-27T11:36:09.119Z,142.7
2018-07-27T11:37:10.714Z,141.7
2018-07-27T11:38:12.613Z,142.7
2018-07-27T11:39:13.831Z,142.7
2018-07-27T11:40:14.907Z,142.7
2018-07-27T11:41:16.476Z,143.2
2018-07-27T11:42:17.999Z,143.2
2018-07-27T11:43:19.849Z,142.7
2018-07-27T11:44:21.397Z,142.7
2018-07-27T11:45:22.773Z,143.2
2018-07-27T11:46:24.177Z,142.7
2018-07-27T11:47:25.741Z,142.7
2018-07-27T11:48:27.290Z,142.7
2018-07-27T11:49:28.539Z,142.7
2018-07-27T11:50:30.067Z,142.7
2018-07-27T11:51:31.452Z,142.7
2018-07-27T11:52:32.839Z,142.7
2018-07-27T11:53:34.385Z,143.2
2018-07-27T11:54:35.945Z,143.2
2018-07-27T11:55:37.484Z,142.7
2018-07-27T11:56:38.690Z,142.7
2018-07-27T11:57:40.096Z,142.7
2018-07-27T11:58:41.316Z,142.7
2018-07-27T11:59:42.863Z,142.7
2018-07-27T12:00:43.922Z,142.7
2018-07-27T12:01:45.715Z,142.7
2018-07-27T12:02:47.570Z,142.2
2018-07-27T12:03:48.957Z,142.2
2018-07-27T12:04:50.514Z,142.7
2018-07-27T12:05:52.068Z,142.2
2018-07-27T12:06:53.467Z,142.2
2018-07-27T12:07:55.020Z,142.2
2018-07-27T12:08:56.408Z,142.7
2018-07-27T12:09:57.959Z,142.2
2018-07-27T12:10:59.527Z,142.2
2018-07-27T12:12:01.077Z,141.7
2018-07-27T12:13:02.636Z,142.2
2018-07-27T12:14:04.690Z,142.2
2018-07-27T12:15:08.136Z,142.2
2018-07-27T12:16:10.364Z,142.2
2018-07-27T12:17:11.573Z,142.2
2018-07-27T12:18:13.127Z,142.2
2018-07-27T12:19:14.675Z,142.2
2018-07-27T12:20:16.096Z,142.2
2018-07-27T12:21:17.899Z,143.2
2018-07-27T12:22:20.396Z,142.7
2018-07-27T12:23:21.958Z,142.7
2018-07-27T12:24:23.182Z,142.2
2018-07-27T12:25:24.395Z,142.7
2018-07-27T12:26:25.605Z,142.2
2018-07-27T12:27:27.141Z,142.2
2018-07-27T12:28:28.205Z,142.2
2018-07-27T12:29:29.596Z,142.2
2018-07-27T12:30:31.131Z,142.7
2018-07-27T12:31:32.696Z,141.7
2018-07-27T12:32:33.941Z,142.2
2018-07-27T12:33:35.499Z,142.7
2018-07-27T12:34:37.055Z,141.7
2018-07-27T12:35:38.445Z,141.3
2018-07-27T12:36:39.663Z,141.7
2018-07-27T12:37:41.044Z,141.7
2018-07-27T12:38:42.434Z,142.2
2018-07-27T12:39:43.806Z,142.2
2018-07-27T12:40:45.369Z,142.2
2018-07-27T12:41:46.586Z,142.2
2018-07-27T12:42:48.161Z,142.7
2018-07-27T12:43:49.400Z,141.7
2018-07-27T12:44:50.813Z,142.2
2018-07-27T12:45:52.545Z,142.2
2018-07-27T12:46:53.925Z,141.3
2018-07-27T12:47:55.495Z,141.7
2018-07-27T12:48:56.901Z,142.2
2018-07-27T12:49:58.456Z,142.2
2018-07-27T12:50:59.853Z,141.7
2018-07-27T12:52:01.236Z,141.7
2018-07-27T12:53:02.803Z,141.7
2018-07-27T12:54:04.365Z,141.7
2018-07-27T12:55:05.922Z,141.7
2018-07-27T12:56:07.318Z,141.7
2018-07-27T12:57:08.712Z,141.7
2018-07-27T12:58:10.088Z,142.2
2018-07-27T12:59:11.479Z,142.2
2018-07-27T13:00:12.864Z,141.7
2018-07-27T13:01:14.422Z,141.7
2018-07-27T13:02:15.650Z,142.2
2018-07-27T13:03:17.201Z,142.2
2018-07-27T13:04:18.578Z,142.2
2018-07-27T13:05:20.299Z,142.2
2018-07-27T13:06:21.847Z,142.2
2018-07-27T13:07:23.405Z,141.7
2018-07-27T13:08:24.960Z,142.2
2018-07-27T13:09:26.516Z,142.2
2018-07-27T13:10:28.081Z,141.7
2018-07-27T13:11:29.135Z,142.2